sensor_id;sensor_type;location;lat;lon;timestamp;P1;durP1;ratioP1;P2;durP2;ratioP2
2480;SDS011;57396;48.742;9.128;2023-03-31T00:01:10;12.40;;;2.10;;
2480;SDS011;57396;48.742;9.128;2023-03-31T00:03:36;6.37;;;2.00;;
2480;SDS011;57396;48.742;9.128;2023-03-31T00:06:08;6.13;;;2.00;;
2480;SDS011;57396;48.742;9.128;2023-03-31T00:08:36;5.37;;;1.73;;
2480;SDS011;57396;48.742;9.128;2023-03-31T00:11:02;5.90;;;2.07;;
2480;SDS011;57396;48.742;9.128;2023-03-31T00:13:29;4.93;;;1.93;;
2480;SDS011;57396;48.742;9.128;2023-03-31T00:15:56;6.77;;;2.00;;
2480;SDS011;57396;48.742;9.128;2023-03-31T00:18:25;7.27;;;1.97;;
2480;SDS011;57396;48.742;9.128;2023-03-31T00:20:52;7.93;;;2.13;;
2480;SDS011;57396;48.742;9.128;2023-03-31T00:23:18;5.73;;;2.20;;
2480;SDS011;57396;48.742;9.128;2023-03-31T00:25:52;12.17;;;2.20;;
2480;SDS011;57396;48.742;9.128;2023-03-31T00:28:18;6.77;;;1.93;;
2480;SDS011;57396;48.742;9.128;2023-03-31T00:30:44;6.80;;;2.60;;
2480;SDS011;57396;48.742;9.128;2023-03-31T00:33:11;7.10;;;2.00;;
2480;SDS011;57396;48.742;9.128;2023-03-31T00:35:37;6.20;;;1.90;;
2480;SDS011;57396;48.742;9.128;2023-03-31T00:38:03;4.83;;;2.40;;
2480;SDS011;57396;48.742;9.128;2023-03-31T00:40:30;4.90;;;1.80;;
2480;SDS011;57396;48.742;9.128;2023-03-31T00:42:56;4.57;;;2.00;;
2480;SDS011;57396;48.742;9.128;2023-03-31T00:45:25;6.00;;;2.10;;
2480;SDS011;57396;48.742;9.128;2023-03-31T00:47:54;5.70;;;2.10;;
2480;SDS011;57396;48.742;9.128;2023-03-31T00:50:28;5.13;;;1.80;;
2480;SDS011;57396;48.742;9.128;2023-03-31T00:53:16;4.70;;;2.00;;
2480;SDS011;57396;48.742;9.128;2023-03-31T00:55:43;5.77;;;2.30;;
2480;SDS011;57396;48.742;9.128;2023-03-31T00:58:11;6.57;;;2.30;;
2480;SDS011;57396;48.742;9.128;2023-03-31T01:00:39;4.27;;;1.83;;
2480;SDS011;57396;48.742;9.128;2023-03-31T01:03:05;2.83;;;1.70;;
2480;SDS011;57396;48.742;9.128;2023-03-31T01:05:46;9.40;;;2.10;;
2480;SDS011;57396;48.742;9.128;2023-03-31T01:08:15;6.67;;;1.90;;
2480;SDS011;57396;48.742;9.128;2023-03-31T01:10:44;7.83;;;2.23;;
2480;SDS011;57396;48.742;9.128;2023-03-31T01:13:12;4.93;;;2.33;;
2480;SDS011;57396;48.742;9.128;2023-03-31T01:15:39;9.40;;;2.43;;
2480;SDS011;57396;48.742;9.128;2023-03-31T01:18:05;6.23;;;2.50;;
2480;SDS011;57396;48.742;9.128;2023-03-31T01:33:59;9.13;;;2.10;;
2480;SDS011;57396;48.742;9.128;2023-03-31T01:39:05;9.43;;;2.77;;
2480;SDS011;57396;48.742;9.128;2023-03-31T01:41:46;8.90;;;2.40;;
2480;SDS011;57396;48.742;9.128;2023-03-31T01:44:33;5.67;;;2.37;;
2480;SDS011;57396;48.742;9.128;2023-03-31T01:47:23;5.97;;;2.20;;
2480;SDS011;57396;48.742;9.128;2023-03-31T01:50:41;11.17;;;2.40;;
2480;SDS011;57396;48.742;9.128;2023-03-31T01:52:57;9.43;;;2.10;;
2480;SDS011;57396;48.742;9.128;2023-03-31T01:55:36;8.97;;;2.23;;
2480;SDS011;57396;48.742;9.128;2023-03-31T01:58:22;4.77;;;2.47;;
2480;SDS011;57396;48.742;9.128;2023-03-31T02:00:53;4.37;;;2.30;;
2480;SDS011;57396;48.742;9.128;2023-03-31T02:03:25;6.93;;;2.13;;
2480;SDS011;57396;48.742;9.128;2023-03-31T02:05:55;5.67;;;2.20;;
2480;SDS011;57396;48.742;9.128;2023-03-31T02:08:23;7.17;;;2.33;;
2480;SDS011;57396;48.742;9.128;2023-03-31T02:10:52;5.23;;;2.40;;
2480;SDS011;57396;48.742;9.128;2023-03-31T02:13:18;7.70;;;2.03;;
2480;SDS011;57396;48.742;9.128;2023-03-31T02:15:46;4.43;;;2.20;;
2480;SDS011;57396;48.742;9.128;2023-03-31T02:18:14;6.17;;;2.13;;
2480;SDS011;57396;48.742;9.128;2023-03-31T02:20:41;6.00;;;1.63;;
2480;SDS011;57396;48.742;9.128;2023-03-31T02:23:11;6.30;;;2.30;;
2480;SDS011;57396;48.742;9.128;2023-03-31T02:25:39;4.23;;;2.27;;
2480;SDS011;57396;48.742;9.128;2023-03-31T02:28:07;7.03;;;2.40;;
2480;SDS011;57396;48.742;9.128;2023-03-31T02:30:38;8.43;;;2.70;;
2480;SDS011;57396;48.742;9.128;2023-03-31T02:33:24;8.30;;;2.40;;
2480;SDS011;57396;48.742;9.128;2023-03-31T02:35:50;5.40;;;1.90;;
2480;SDS011;57396;48.742;9.128;2023-03-31T02:38:16;6.27;;;2.70;;
2480;SDS011;57396;48.742;9.128;2023-03-31T02:40:41;5.77;;;2.57;;
2480;SDS011;57396;48.742;9.128;2023-03-31T02:43:07;4.80;;;2.10;;
2480;SDS011;57396;48.742;9.128;2023-03-31T02:48:16;4.80;;;2.60;;
2480;SDS011;57396;48.742;9.128;2023-03-31T02:53:53;10.63;;;2.87;;
2480;SDS011;57396;48.742;9.128;2023-03-31T03:04:42;7.80;;;2.53;;
2480;SDS011;57396;48.742;9.128;2023-03-31T03:12:31;6.63;;;2.60;;
2480;SDS011;57396;48.742;9.128;2023-03-31T03:15:06;7.13;;;2.40;;
2480;SDS011;57396;48.742;9.128;2023-03-31T03:17:40;4.47;;;2.40;;
2480;SDS011;57396;48.742;9.128;2023-03-31T03:20:08;6.57;;;2.57;;
2480;SDS011;57396;48.742;9.128;2023-03-31T03:22:35;6.13;;;2.57;;
2480;SDS011;57396;48.742;9.128;2023-03-31T03:25:02;11.73;;;3.20;;
2480;SDS011;57396;48.742;9.128;2023-03-31T03:27:31;4.97;;;2.57;;
2480;SDS011;57396;48.742;9.128;2023-03-31T03:29:57;7.87;;;2.30;;
2480;SDS011;57396;48.742;9.128;2023-03-31T03:32:22;7.27;;;2.17;;
2480;SDS011;57396;48.742;9.128;2023-03-31T03:34:48;8.73;;;2.67;;
2480;SDS011;57396;48.742;9.128;2023-03-31T03:37:13;8.07;;;2.73;;
2480;SDS011;57396;48.742;9.128;2023-03-31T03:39:39;4.87;;;2.50;;
2480;SDS011;57396;48.742;9.128;2023-03-31T03:42:04;4.60;;;2.40;;
2480;SDS011;57396;48.742;9.128;2023-03-31T03:44:29;6.30;;;2.70;;
2480;SDS011;57396;48.742;9.128;2023-03-31T03:46:55;5.10;;;2.43;;
2480;SDS011;57396;48.742;9.128;2023-03-31T03:49:20;5.53;;;2.60;;
2480;SDS011;57396;48.742;9.128;2023-03-31T03:51:46;5.30;;;2.57;;
2480;SDS011;57396;48.742;9.128;2023-03-31T03:54:11;6.30;;;2.87;;
2480;SDS011;57396;48.742;9.128;2023-03-31T03:56:37;6.63;;;3.03;;
2480;SDS011;57396;48.742;9.128;2023-03-31T03:59:02;4.33;;;2.90;;
2480;SDS011;57396;48.742;9.128;2023-03-31T04:01:28;11.70;;;3.00;;
2480;SDS011;57396;48.742;9.128;2023-03-31T04:03:53;9.73;;;2.97;;
2480;SDS011;57396;48.742;9.128;2023-03-31T04:06:19;5.20;;;2.73;;
2480;SDS011;57396;48.742;9.128;2023-03-31T04:08:44;7.63;;;3.27;;
2480;SDS011;57396;48.742;9.128;2023-03-31T04:11:14;5.33;;;2.80;;
2480;SDS011;57396;48.742;9.128;2023-03-31T04:13:41;7.77;;;2.87;;
2480;SDS011;57396;48.742;9.128;2023-03-31T04:16:07;7.47;;;2.83;;
2480;SDS011;57396;48.742;9.128;2023-03-31T04:18:33;6.00;;;3.20;;
2480;SDS011;57396;48.742;9.128;2023-03-31T04:21:01;7.33;;;3.27;;
2480;SDS011;57396;48.742;9.128;2023-03-31T04:23:30;5.97;;;3.23;;
2480;SDS011;57396;48.742;9.128;2023-03-31T04:25:56;5.03;;;2.90;;
2480;SDS011;57396;48.742;9.128;2023-03-31T04:28:22;6.93;;;3.30;;
2480;SDS011;57396;48.742;9.128;2023-03-31T04:30:47;5.67;;;3.37;;
2480;SDS011;57396;48.742;9.128;2023-03-31T04:33:13;5.70;;;3.03;;
2480;SDS011;57396;48.742;9.128;2023-03-31T04:35:40;7.77;;;3.37;;
2480;SDS011;57396;48.742;9.128;2023-03-31T04:38:18;8.83;;;3.27;;
2480;SDS011;57396;48.742;9.128;2023-03-31T04:40:45;7.90;;;3.47;;
2480;SDS011;57396;48.742;9.128;2023-03-31T04:43:11;5.80;;;3.10;;
2480;SDS011;57396;48.742;9.128;2023-03-31T04:45:37;8.03;;;3.77;;
2480;SDS011;57396;48.742;9.128;2023-03-31T04:48:02;10.70;;;3.67;;
2480;SDS011;57396;48.742;9.128;2023-03-31T04:50:28;8.23;;;3.40;;
2480;SDS011;57396;48.742;9.128;2023-03-31T04:52:53;8.23;;;3.57;;
2480;SDS011;57396;48.742;9.128;2023-03-31T04:55:19;10.73;;;3.70;;
2480;SDS011;57396;48.742;9.128;2023-03-31T04:57:44;4.93;;;3.63;;
2480;SDS011;57396;48.742;9.128;2023-03-31T05:00:10;6.33;;;3.80;;
2480;SDS011;57396;48.742;9.128;2023-03-31T05:02:36;11.00;;;3.87;;
2480;SDS011;57396;48.742;9.128;2023-03-31T05:05:01;8.50;;;3.23;;
2480;SDS011;57396;48.742;9.128;2023-03-31T05:07:27;7.50;;;3.73;;
2480;SDS011;57396;48.742;9.128;2023-03-31T05:09:53;11.00;;;4.90;;
2480;SDS011;57396;48.742;9.128;2023-03-31T05:12:18;6.93;;;3.83;;
2480;SDS011;57396;48.742;9.128;2023-03-31T05:14:44;8.20;;;4.00;;
2480;SDS011;57396;48.742;9.128;2023-03-31T05:17:09;8.23;;;4.20;;
2480;SDS011;57396;48.742;9.128;2023-03-31T05:19:35;8.47;;;4.13;;
2480;SDS011;57396;48.742;9.128;2023-03-31T05:22:00;9.33;;;4.37;;
2480;SDS011;57396;48.742;9.128;2023-03-31T05:24:26;8.30;;;4.20;;
2480;SDS011;57396;48.742;9.128;2023-03-31T05:26:53;13.50;;;4.80;;
2480;SDS011;57396;48.742;9.128;2023-03-31T05:29:20;9.73;;;3.80;;
2480;SDS011;57396;48.742;9.128;2023-03-31T05:31:46;9.23;;;3.80;;
2480;SDS011;57396;48.742;9.128;2023-03-31T05:34:12;7.30;;;4.10;;
2480;SDS011;57396;48.742;9.128;2023-03-31T05:36:38;9.03;;;4.23;;
2480;SDS011;57396;48.742;9.128;2023-03-31T05:39:04;10.97;;;4.50;;
2480;SDS011;57396;48.742;9.128;2023-03-31T05:41:29;10.30;;;4.23;;
2480;SDS011;57396;48.742;9.128;2023-03-31T05:43:55;7.50;;;4.37;;
2480;SDS011;57396;48.742;9.128;2023-03-31T05:46:20;10.30;;;4.57;;
2480;SDS011;57396;48.742;9.128;2023-03-31T05:48:46;8.67;;;4.60;;
2480;SDS011;57396;48.742;9.128;2023-03-31T05:51:12;9.30;;;5.70;;
2480;SDS011;57396;48.742;9.128;2023-03-31T05:53:37;9.90;;;5.47;;
2480;SDS011;57396;48.742;9.128;2023-03-31T05:56:03;6.67;;;4.50;;
2480;SDS011;57396;48.742;9.128;2023-03-31T05:58:32;12.87;;;6.20;;
2480;SDS011;57396;48.742;9.128;2023-03-31T06:01:14;16.33;;;4.90;;
2480;SDS011;57396;48.742;9.128;2023-03-31T06:03:44;6.77;;;4.90;;
2480;SDS011;57396;48.742;9.128;2023-03-31T06:06:10;10.03;;;5.03;;
2480;SDS011;57396;48.742;9.128;2023-03-31T06:08:40;12.60;;;5.27;;
2480;SDS011;57396;48.742;9.128;2023-03-31T06:11:07;9.23;;;5.00;;
2480;SDS011;57396;48.742;9.128;2023-03-31T06:13:35;8.47;;;5.40;;
2480;SDS011;57396;48.742;9.128;2023-03-31T06:16:01;9.30;;;4.87;;
2480;SDS011;57396;48.742;9.128;2023-03-31T06:18:27;11.57;;;5.40;;
2480;SDS011;57396;48.742;9.128;2023-03-31T06:20:54;10.37;;;4.90;;
2480;SDS011;57396;48.742;9.128;2023-03-31T06:23:20;8.27;;;4.77;;
2480;SDS011;57396;48.742;9.128;2023-03-31T06:25:46;8.70;;;5.53;;
2480;SDS011;57396;48.742;9.128;2023-03-31T06:28:11;12.13;;;5.47;;
2480;SDS011;57396;48.742;9.128;2023-03-31T06:30:37;12.30;;;5.23;;
2480;SDS011;57396;48.742;9.128;2023-03-31T06:33:03;15.23;;;5.60;;
2480;SDS011;57396;48.742;9.128;2023-03-31T06:35:29;8.67;;;5.60;;
2480;SDS011;57396;48.742;9.128;2023-03-31T06:37:54;10.63;;;5.13;;
2480;SDS011;57396;48.742;9.128;2023-03-31T06:40:20;11.97;;;5.20;;
2480;SDS011;57396;48.742;9.128;2023-03-31T06:42:45;15.47;;;5.50;;
2480;SDS011;57396;48.742;9.128;2023-03-31T06:45:11;12.50;;;5.90;;
2480;SDS011;57396;48.742;9.128;2023-03-31T06:47:36;9.90;;;5.23;;
2480;SDS011;57396;48.742;9.128;2023-03-31T06:50:03;15.40;;;5.20;;
2480;SDS011;57396;48.742;9.128;2023-03-31T06:52:30;14.47;;;6.17;;
2480;SDS011;57396;48.742;9.128;2023-03-31T06:54:56;13.60;;;5.53;;
2480;SDS011;57396;48.742;9.128;2023-03-31T06:57:21;12.77;;;6.67;;
2480;SDS011;57396;48.742;9.128;2023-03-31T06:59:47;10.00;;;5.40;;
2480;SDS011;57396;48.742;9.128;2023-03-31T07:02:12;10.30;;;5.23;;
2480;SDS011;57396;48.742;9.128;2023-03-31T07:04:38;10.17;;;5.77;;
2480;SDS011;57396;48.742;9.128;2023-03-31T07:07:04;12.90;;;5.17;;
2480;SDS011;57396;48.742;9.128;2023-03-31T07:09:29;9.57;;;5.17;;
2480;SDS011;57396;48.742;9.128;2023-03-31T07:11:55;9.43;;;4.80;;
2480;SDS011;57396;48.742;9.128;2023-03-31T07:14:20;9.00;;;4.90;;
2480;SDS011;57396;48.742;9.128;2023-03-31T07:16:46;6.20;;;4.57;;
2480;SDS011;57396;48.742;9.128;2023-03-31T07:19:12;10.63;;;4.30;;
2480;SDS011;57396;48.742;9.128;2023-03-31T07:21:39;9.33;;;4.60;;
2480;SDS011;57396;48.742;9.128;2023-03-31T07:24:05;7.17;;;3.20;;
2480;SDS011;57396;48.742;9.128;2023-03-31T07:26:30;6.47;;;3.50;;
2480;SDS011;57396;48.742;9.128;2023-03-31T07:28:55;3.10;;;2.50;;
2480;SDS011;57396;48.742;9.128;2023-03-31T07:31:21;3.87;;;3.00;;
2480;SDS011;57396;48.742;9.128;2023-03-31T07:33:47;4.23;;;3.00;;
2480;SDS011;57396;48.742;9.128;2023-03-31T07:36:12;10.90;;;4.23;;
2480;SDS011;57396;48.742;9.128;2023-03-31T07:38:39;5.37;;;2.90;;
2480;SDS011;57396;48.742;9.128;2023-03-31T07:41:05;7.40;;;3.03;;
2480;SDS011;57396;48.742;9.128;2023-03-31T07:43:34;3.37;;;2.20;;
2480;SDS011;57396;48.742;9.128;2023-03-31T07:46:00;5.43;;;2.13;;
2480;SDS011;57396;48.742;9.128;2023-03-31T07:48:25;3.50;;;2.37;;
2480;SDS011;57396;48.742;9.128;2023-03-31T07:50:53;4.43;;;2.23;;
2480;SDS011;57396;48.742;9.128;2023-03-31T07:53:18;3.97;;;2.00;;
2480;SDS011;57396;48.742;9.128;2023-03-31T07:55:45;2.67;;;1.60;;
2480;SDS011;57396;48.742;9.128;2023-03-31T07:58:11;1.80;;;1.20;;
2480;SDS011;57396;48.742;9.128;2023-03-31T08:00:36;2.90;;;1.50;;
2480;SDS011;57396;48.742;9.128;2023-03-31T08:03:02;4.83;;;1.90;;
2480;SDS011;57396;48.742;9.128;2023-03-31T08:05:27;4.17;;;1.67;;
2480;SDS011;57396;48.742;9.128;2023-03-31T08:07:53;2.83;;;1.80;;
2480;SDS011;57396;48.742;9.128;2023-03-31T08:10:20;3.00;;;1.83;;
2480;SDS011;57396;48.742;9.128;2023-03-31T08:12:47;4.67;;;1.60;;
2480;SDS011;57396;48.742;9.128;2023-03-31T08:15:13;1.33;;;1.10;;
2480;SDS011;57396;48.742;9.128;2023-03-31T08:17:38;2.60;;;1.40;;
2480;SDS011;57396;48.742;9.128;2023-03-31T08:20:04;2.03;;;1.23;;
2480;SDS011;57396;48.742;9.128;2023-03-31T08:22:36;1.80;;;1.10;;
2480;SDS011;57396;48.742;9.128;2023-03-31T08:25:03;1.83;;;0.90;;
2480;SDS011;57396;48.742;9.128;2023-03-31T08:27:33;1.93;;;1.00;;
2480;SDS011;57396;48.742;9.128;2023-03-31T08:29:59;1.73;;;1.20;;
2480;SDS011;57396;48.742;9.128;2023-03-31T08:32:28;2.30;;;1.67;;
2480;SDS011;57396;48.742;9.128;2023-03-31T08:34:55;2.70;;;1.10;;
2480;SDS011;57396;48.742;9.128;2023-03-31T08:37:20;3.87;;;1.30;;
2480;SDS011;57396;48.742;9.128;2023-03-31T08:39:46;3.50;;;1.30;;
2480;SDS011;57396;48.742;9.128;2023-03-31T08:42:15;3.20;;;1.10;;
2480;SDS011;57396;48.742;9.128;2023-03-31T08:44:46;3.90;;;1.20;;
2480;SDS011;57396;48.742;9.128;2023-03-31T08:47:19;2.20;;;1.20;;
2480;SDS011;57396;48.742;9.128;2023-03-31T08:49:56;3.33;;;1.30;;
2480;SDS011;57396;48.742;9.128;2023-03-31T08:52:29;2.93;;;1.20;;
2480;SDS011;57396;48.742;9.128;2023-03-31T08:55:04;2.47;;;1.07;;
2480;SDS011;57396;48.742;9.128;2023-03-31T08:57:37;3.47;;;1.27;;
2480;SDS011;57396;48.742;9.128;2023-03-31T09:00:08;3.67;;;1.20;;
2480;SDS011;57396;48.742;9.128;2023-03-31T09:02:54;1.80;;;1.20;;
2480;SDS011;57396;48.742;9.128;2023-03-31T09:08:40;6.90;;;1.50;;
2480;SDS011;57396;48.742;9.128;2023-03-31T09:14:09;3.37;;;1.50;;
2480;SDS011;57396;48.742;9.128;2023-03-31T09:19:44;2.07;;;1.07;;
2480;SDS011;57396;48.742;9.128;2023-03-31T09:22:36;2.42;;;1.20;;
2480;SDS011;57396;48.742;9.128;2023-03-31T09:27:45;2.70;;;1.10;;
2480;SDS011;57396;48.742;9.128;2023-03-31T09:30:16;6.10;;;1.30;;
2480;SDS011;57396;48.742;9.128;2023-03-31T09:32:46;9.90;;;1.37;;
2480;SDS011;57396;48.742;9.128;2023-03-31T09:35:19;3.37;;;1.17;;
2480;SDS011;57396;48.742;9.128;2023-03-31T09:37:47;5.20;;;1.40;;
2480;SDS011;57396;48.742;9.128;2023-03-31T09:40:23;4.30;;;1.77;;
2480;SDS011;57396;48.742;9.128;2023-03-31T09:42:52;6.80;;;1.50;;
2480;SDS011;57396;48.742;9.128;2023-03-31T09:45:20;1.63;;;0.97;;
2480;SDS011;57396;48.742;9.128;2023-03-31T09:47:46;3.70;;;1.30;;
2480;SDS011;57396;48.742;9.128;2023-03-31T09:50:18;6.27;;;1.20;;
2480;SDS011;57396;48.742;9.128;2023-03-31T09:52:51;3.17;;;1.40;;
2480;SDS011;57396;48.742;9.128;2023-03-31T09:57:43;2.93;;;1.47;;
2480;SDS011;57396;48.742;9.128;2023-03-31T10:02:56;2.83;;;1.00;;
2480;SDS011;57396;48.742;9.128;2023-03-31T10:10:41;7.70;;;1.80;;
2480;SDS011;57396;48.742;9.128;2023-03-31T10:13:08;3.53;;;1.67;;
2480;SDS011;57396;48.742;9.128;2023-03-31T10:15:37;7.10;;;1.70;;
2480;SDS011;57396;48.742;9.128;2023-03-31T10:18:03;8.20;;;1.30;;
2480;SDS011;57396;48.742;9.128;2023-03-31T10:22:54;7.03;;;1.67;;
2480;SDS011;57396;48.742;9.128;2023-03-31T10:25:20;2.70;;;1.27;;
2480;SDS011;57396;48.742;9.128;2023-03-31T10:27:48;3.57;;;1.50;;
2480;SDS011;57396;48.742;9.128;2023-03-31T10:30:17;13.50;;;1.90;;
2480;SDS011;57396;48.742;9.128;2023-03-31T10:32:46;3.60;;;1.50;;
2480;SDS011;57396;48.742;9.128;2023-03-31T10:38:03;4.13;;;1.30;;
2480;SDS011;57396;48.742;9.128;2023-03-31T10:40:35;5.47;;;1.80;;
2480;SDS011;57396;48.742;9.128;2023-03-31T10:43:12;5.67;;;1.50;;
2480;SDS011;57396;48.742;9.128;2023-03-31T10:45:42;6.90;;;1.40;;
2480;SDS011;57396;48.742;9.128;2023-03-31T10:48:56;4.80;;;1.70;;
2480;SDS011;57396;48.742;9.128;2023-03-31T10:50:58;5.63;;;1.57;;
2480;SDS011;57396;48.742;9.128;2023-03-31T10:53:27;6.80;;;1.30;;
2480;SDS011;57396;48.742;9.128;2023-03-31T11:23:41;3.90;;;1.07;;
2480;SDS011;57396;48.742;9.128;2023-03-31T11:28:40;1.37;;;0.70;;
2480;SDS011;57396;48.742;9.128;2023-03-31T11:37:11;4.40;;;0.70;;
2480;SDS011;57396;48.742;9.128;2023-03-31T11:39:53;2.60;;;0.60;;
2480;SDS011;57396;48.742;9.128;2023-03-31T11:42:36;1.40;;;0.50;;
2480;SDS011;57396;48.742;9.128;2023-03-31T11:45:14;2.80;;;0.70;;
2480;SDS011;57396;48.742;9.128;2023-03-31T11:47:42;2.90;;;0.87;;
2480;SDS011;57396;48.742;9.128;2023-03-31T11:50:11;3.23;;;1.10;;
2480;SDS011;57396;48.742;9.128;2023-03-31T11:52:40;0.90;;;0.60;;
2480;SDS011;57396;48.742;9.128;2023-03-31T12:00:37;2.03;;;0.70;;
2480;SDS011;57396;48.742;9.128;2023-03-31T12:05:49;5.10;;;0.73;;
2480;SDS011;57396;48.742;9.128;2023-03-31T12:08:22;1.83;;;0.70;;
2480;SDS011;57396;48.742;9.128;2023-03-31T12:10:53;1.73;;;0.70;;
2480;SDS011;57396;48.742;9.128;2023-03-31T12:13:39;1.10;;;0.70;;
2480;SDS011;57396;48.742;9.128;2023-03-31T12:16:12;0.90;;;0.53;;
2480;SDS011;57396;48.742;9.128;2023-03-31T12:19:23;1.97;;;0.80;;
2480;SDS011;57396;48.742;9.128;2023-03-31T12:21:31;1.60;;;0.70;;
2480;SDS011;57396;48.742;9.128;2023-03-31T12:23:58;1.77;;;0.70;;
2480;SDS011;57396;48.742;9.128;2023-03-31T12:28:57;1.37;;;0.70;;
2480;SDS011;57396;48.742;9.128;2023-03-31T12:31:24;2.43;;;0.60;;
2480;SDS011;57396;48.742;9.128;2023-03-31T12:34:01;1.60;;;0.70;;
2480;SDS011;57396;48.742;9.128;2023-03-31T12:55:30;3.80;;;1.00;;
2480;SDS011;57396;48.742;9.128;2023-03-31T12:58:41;1.60;;;0.80;;
2480;SDS011;57396;48.742;9.128;2023-03-31T13:11:18;2.93;;;0.83;;
2480;SDS011;57396;48.742;9.128;2023-03-31T13:14:12;6.80;;;1.07;;
2480;SDS011;57396;48.742;9.128;2023-03-31T13:16:32;4.80;;;1.27;;
2480;SDS011;57396;48.742;9.128;2023-03-31T13:18:58;6.03;;;1.50;;
2480;SDS011;57396;48.742;9.128;2023-03-31T13:21:24;5.47;;;1.50;;
2480;SDS011;57396;48.742;9.128;2023-03-31T13:23:50;6.13;;;1.67;;
2480;SDS011;57396;48.742;9.128;2023-03-31T13:34:57;1.40;;;0.80;;
2480;SDS011;57396;48.742;9.128;2023-03-31T13:42:57;1.60;;;1.30;;
2480;SDS011;57396;48.742;9.128;2023-03-31T13:48:43;1.20;;;0.60;;
2480;SDS011;57396;48.742;9.128;2023-03-31T14:05:54;1.73;;;0.60;;
2480;SDS011;57396;48.742;9.128;2023-03-31T14:16:26;2.40;;;0.70;;
2480;SDS011;57396;48.742;9.128;2023-03-31T14:18:52;2.43;;;0.70;;
2480;SDS011;57396;48.742;9.128;2023-03-31T14:21:30;1.37;;;0.67;;
2480;SDS011;57396;48.742;9.128;2023-03-31T14:37:04;2.43;;;0.57;;
2480;SDS011;57396;48.742;9.128;2023-03-31T14:39:35;1.93;;;0.60;;
2480;SDS011;57396;48.742;9.128;2023-03-31T14:42:05;1.17;;;0.57;;
2480;SDS011;57396;48.742;9.128;2023-03-31T14:44:38;1.20;;;0.60;;
2480;SDS011;57396;48.742;9.128;2023-03-31T14:47:05;1.80;;;0.60;;
2480;SDS011;57396;48.742;9.128;2023-03-31T14:49:34;1.20;;;0.70;;
2480;SDS011;57396;48.742;9.128;2023-03-31T14:52:03;3.90;;;0.63;;
2480;SDS011;57396;48.742;9.128;2023-03-31T14:54:37;1.97;;;0.70;;
2480;SDS011;57396;48.742;9.128;2023-03-31T14:57:05;1.20;;;0.70;;
2480;SDS011;57396;48.742;9.128;2023-03-31T14:59:31;1.40;;;0.70;;
2480;SDS011;57396;48.742;9.128;2023-03-31T15:01:58;1.87;;;0.80;;
2480;SDS011;57396;48.742;9.128;2023-03-31T15:04:27;1.40;;;0.63;;
2480;SDS011;57396;48.742;9.128;2023-03-31T15:06:53;2.10;;;0.67;;
2480;SDS011;57396;48.742;9.128;2023-03-31T15:09:23;1.20;;;0.83;;
2480;SDS011;57396;48.742;9.128;2023-03-31T15:11:55;3.90;;;0.90;;
2480;SDS011;57396;48.742;9.128;2023-03-31T15:14:45;1.80;;;0.80;;
2480;SDS011;57396;48.742;9.128;2023-03-31T15:17:16;2.37;;;0.80;;
2480;SDS011;57396;48.742;9.128;2023-03-31T15:19:43;1.43;;;0.70;;
2480;SDS011;57396;48.742;9.128;2023-03-31T15:22:14;1.20;;;0.60;;
2480;SDS011;57396;48.742;9.128;2023-03-31T15:24:42;1.40;;;0.73;;
2480;SDS011;57396;48.742;9.128;2023-03-31T15:29:55;1.73;;;0.83;;
2480;SDS011;57396;48.742;9.128;2023-03-31T15:32:26;2.63;;;0.90;;
2480;SDS011;57396;48.742;9.128;2023-03-31T15:34:53;2.30;;;0.60;;
2480;SDS011;57396;48.742;9.128;2023-03-31T15:40:20;2.23;;;0.90;;
2480;SDS011;57396;48.742;9.128;2023-03-31T15:42:45;2.60;;;0.80;;
2480;SDS011;57396;48.742;9.128;2023-03-31T15:48:18;2.37;;;0.80;;
2480;SDS011;57396;48.742;9.128;2023-03-31T15:51:01;2.70;;;0.90;;
2480;SDS011;57396;48.742;9.128;2023-03-31T15:53:28;3.17;;;1.00;;
2480;SDS011;57396;48.742;9.128;2023-03-31T15:56:01;4.13;;;0.93;;
2480;SDS011;57396;48.742;9.128;2023-03-31T15:58:46;2.00;;;0.80;;
2480;SDS011;57396;48.742;9.128;2023-03-31T16:01:18;3.20;;;0.83;;
2480;SDS011;57396;48.742;9.128;2023-03-31T16:03:44;3.90;;;0.80;;
2480;SDS011;57396;48.742;9.128;2023-03-31T16:06:21;2.47;;;1.20;;
2480;SDS011;57396;48.742;9.128;2023-03-31T16:08:59;1.60;;;0.80;;
2480;SDS011;57396;48.742;9.128;2023-03-31T16:11:39;3.47;;;1.33;;
2480;SDS011;57396;48.742;9.128;2023-03-31T16:14:14;4.20;;;0.90;;
2480;SDS011;57396;48.742;9.128;2023-03-31T16:16:45;1.60;;;0.80;;
2480;SDS011;57396;48.742;9.128;2023-03-31T16:19:12;2.87;;;0.83;;
2480;SDS011;57396;48.742;9.128;2023-03-31T16:21:42;2.67;;;1.00;;
2480;SDS011;57396;48.742;9.128;2023-03-31T16:24:11;2.67;;;1.03;;
2480;SDS011;57396;48.742;9.128;2023-03-31T16:26:37;4.60;;;0.80;;
2480;SDS011;57396;48.742;9.128;2023-03-31T16:29:03;3.67;;;1.07;;
2480;SDS011;57396;48.742;9.128;2023-03-31T16:31:34;2.50;;;0.83;;
2480;SDS011;57396;48.742;9.128;2023-03-31T16:33:59;2.80;;;1.00;;
2480;SDS011;57396;48.742;9.128;2023-03-31T16:36:25;2.20;;;0.70;;
2480;SDS011;57396;48.742;9.128;2023-03-31T16:38:51;2.33;;;0.80;;
2480;SDS011;57396;48.742;9.128;2023-03-31T16:41:18;2.20;;;0.63;;
2480;SDS011;57396;48.742;9.128;2023-03-31T16:43:44;2.63;;;0.77;;
2480;SDS011;57396;48.742;9.128;2023-03-31T16:46:10;2.57;;;1.07;;
2480;SDS011;57396;48.742;9.128;2023-03-31T16:48:35;1.20;;;0.80;;
2480;SDS011;57396;48.742;9.128;2023-03-31T16:51:01;3.80;;;0.80;;
2480;SDS011;57396;48.742;9.128;2023-03-31T16:53:27;2.10;;;0.70;;
2480;SDS011;57396;48.742;9.128;2023-03-31T16:55:56;2.73;;;0.90;;
2480;SDS011;57396;48.742;9.128;2023-03-31T16:58:22;2.30;;;0.80;;
2480;SDS011;57396;48.742;9.128;2023-03-31T17:00:48;2.37;;;0.90;;
2480;SDS011;57396;48.742;9.128;2023-03-31T17:03:14;3.23;;;0.80;;
2480;SDS011;57396;48.742;9.128;2023-03-31T17:05:44;8.27;;;0.70;;
2480;SDS011;57396;48.742;9.128;2023-03-31T17:08:11;1.83;;;0.70;;
2480;SDS011;57396;48.742;9.128;2023-03-31T17:10:38;10.40;;;0.80;;
2480;SDS011;57396;48.742;9.128;2023-03-31T17:13:03;2.83;;;0.70;;
2480;SDS011;57396;48.742;9.128;2023-03-31T17:15:29;3.33;;;0.90;;
2480;SDS011;57396;48.742;9.128;2023-03-31T17:17:55;1.93;;;0.80;;
2480;SDS011;57396;48.742;9.128;2023-03-31T17:20:22;1.23;;;0.70;;
2480;SDS011;57396;48.742;9.128;2023-03-31T17:22:49;2.90;;;0.80;;
2480;SDS011;57396;48.742;9.128;2023-03-31T17:25:14;2.80;;;0.87;;
2480;SDS011;57396;48.742;9.128;2023-03-31T17:27:40;1.90;;;0.83;;
2480;SDS011;57396;48.742;9.128;2023-03-31T17:30:06;3.80;;;1.10;;
2480;SDS011;57396;48.742;9.128;2023-03-31T17:32:33;1.80;;;0.90;;
2480;SDS011;57396;48.742;9.128;2023-03-31T17:34:59;1.87;;;0.83;;
2480;SDS011;57396;48.742;9.128;2023-03-31T17:37:26;2.10;;;0.90;;
2480;SDS011;57396;48.742;9.128;2023-03-31T17:39:51;3.50;;;0.80;;
2480;SDS011;57396;48.742;9.128;2023-03-31T17:42:17;1.90;;;1.00;;
2480;SDS011;57396;48.742;9.128;2023-03-31T17:44:44;3.00;;;0.80;;
2480;SDS011;57396;48.742;9.128;2023-03-31T17:47:11;1.93;;;0.90;;
2480;SDS011;57396;48.742;9.128;2023-03-31T17:49:37;4.90;;;1.40;;
2480;SDS011;57396;48.742;9.128;2023-03-31T17:52:03;3.13;;;1.27;;
2480;SDS011;57396;48.742;9.128;2023-03-31T17:54:28;2.80;;;0.97;;
2480;SDS011;57396;48.742;9.128;2023-03-31T17:56:54;4.17;;;1.20;;
2480;SDS011;57396;48.742;9.128;2023-03-31T17:59:20;1.90;;;1.13;;
2480;SDS011;57396;48.742;9.128;2023-03-31T18:01:46;2.03;;;1.07;;
2480;SDS011;57396;48.742;9.128;2023-03-31T18:04:12;3.27;;;1.13;;
2480;SDS011;57396;48.742;9.128;2023-03-31T18:06:40;3.13;;;1.03;;
2480;SDS011;57396;48.742;9.128;2023-03-31T18:09:08;4.33;;;1.50;;
2480;SDS011;57396;48.742;9.128;2023-03-31T18:11:34;3.20;;;1.37;;
2480;SDS011;57396;48.742;9.128;2023-03-31T18:14:00;4.40;;;1.17;;
2480;SDS011;57396;48.742;9.128;2023-03-31T18:16:27;2.73;;;1.30;;
2480;SDS011;57396;48.742;9.128;2023-03-31T18:18:53;2.13;;;1.10;;
2480;SDS011;57396;48.742;9.128;2023-03-31T18:21:19;7.43;;;1.63;;
2480;SDS011;57396;48.742;9.128;2023-03-31T18:23:45;3.13;;;1.20;;
2480;SDS011;57396;48.742;9.128;2023-03-31T18:26:16;3.90;;;1.77;;
2480;SDS011;57396;48.742;9.128;2023-03-31T18:28:43;4.30;;;1.50;;
2480;SDS011;57396;48.742;9.128;2023-03-31T18:31:09;3.47;;;1.20;;